Time;durP1;ratioP1;P1;durP2;ratioP2;P2;SDS_P1;SDS_P2;PMS_P1;PMS_P2;Temp;Humidity;BMP_temperature;BMP_pressure;BME280_temperature;BME280_humidity;BME280_pressure;Samples;Min_cycle;Max_cycle;Signal;HPM_P1;HPM_P2
2022/01/25 00:33:38;;;;;;;;;;;;;;;-8.01;71.14;102406.44;5102756;28;19927;-67
2022/01/25 00:36:05;;;;;;;;;;;;;;;-8.00;70.99;102400.38;5090298;28;20424;-66
2022/01/25 00:38:30;;;;;;;;;;;;;;;-7.99;70.93;102411.66;5112139;28;19947;-67
2022/01/25 00:40:56;;;;;;;;;;;;;;;-7.98;72.02;102409.09;5096983;28;20372;-66
2022/01/25 00:43:23;;;;;;;;;;;;;;;-7.95;71.32;102410.88;5097880;28;20417;-67
2022/01/25 00:45:50;;;;;;;;;;;;;;;-7.94;71.18;102408.31;5081051;28;19916;-67
2022/01/25 00:48:29;;;;;;;;;;;;;;;-7.94;71.01;102402.22;5094386;28;20269;-67
2022/01/25 00:51:03;;;;;;;;;;;;;;;-8.00;71.22;102396.91;5107707;28;19920;-66
2022/01/25 00:56:12;;;;;;;;;;;;;;;-8.00;71.85;102397.75;5104800;28;19996;-66
2022/01/25 00:58:37;;;;;;;;;;;;;;;-8.00;72.74;102389.97;5103961;28;20407;-67
2022/01/25 01:01:03;;;;;;;;;;;;;;;-8.01;72.52;102389.94;5088124;28;19923;-66
2022/01/25 01:03:28;;;;;;;;;;;;;;;-8.04;71.95;102382.06;5096343;28;19919;-66
2022/01/25 01:05:53;;;;;;;;;;;;;;;-8.05;71.00;102385.50;5111655;28;19915;-66
2022/01/25 01:08:18;;;;;;;;;;;;;;;-8.09;71.44;102386.31;5109612;28;19956;-66
2022/01/25 01:10:44;;;;;;;;;;;;;;;-8.12;71.52;102375.84;5109501;28;19916;-67
2022/01/25 01:30:11;;;;;;;;;;;;;;;-8.10;74.17;102363.75;5043181;28;19920;-66
2022/01/25 01:35:30;;;;;;;;;;;;;;;-7.99;77.54;102355.28;5103189;28;20403;-66
2022/01/25 01:38:21;;;;;;;;;;;;;;;-7.93;79.09;102352.78;5097854;28;19920;-66
2022/01/25 01:43:36;;;;;;;;;;;;;;;-7.76;81.22;102350.50;5107731;28;19980;-67
2022/01/25 01:46:27;;;;;;;;;;;;;;;-7.72;81.52;102341.88;5112335;28;19908;-67
2022/01/25 01:53:50;;;;;;;;;;;;;;;-7.60;81.32;102332.59;5099547;28;19912;-67
2022/01/25 01:56:16;;;;;;;;;;;;;;;-7.58;81.05;102330.00;5073582;28;19919;-67
2022/01/25 01:58:41;;;;;;;;;;;;;;;-7.52;81.43;102330.09;5104676;28;19912;-67
2022/01/25 02:01:09;;;;;;;;;;;;;;;-7.51;81.68;102324.91;5079792;28;19922;-68
2022/01/25 02:03:35;;;;;;;;;;;;;;;-7.51;81.78;102313.63;5092407;28;20002;-69
2022/01/25 02:06:00;;;;;;;;;;;;;;;-7.45;82.71;102312.00;5110460;28;19991;-68
2022/01/25 02:08:25;;;;;;;;;;;;;;;-7.38;83.62;102313.84;5108101;28;19919;-68
2022/01/25 02:10:51;;;;;;;;;;;;;;;-7.33;83.98;102316.53;5091968;28;19916;-68
2022/01/25 02:13:16;;;;;;;;;;;;;;;-7.31;84.07;102310.50;5095261;28;19920;-67
2022/01/25 02:15:45;;;;;;;;;;;;;;;-7.25;83.82;102305.38;5102715;28;20299;-68
2022/01/25 02:23:40;;;;;;;;;;;;;;;-7.16;82.57;102297.69;5104142;28;19983;-68
2022/01/25 02:26:06;;;;;;;;;;;;;;;-7.13;82.94;102291.66;5092136;28;19916;-68
2022/01/25 02:28:33;;;;;;;;;;;;;;;-7.13;81.94;102284.72;5097894;28;19955;-67
2022/01/25 02:31:00;;;;;;;;;;;;;;;-7.07;81.76;102285.66;5097147;28;20323;-67
2022/01/25 02:33:26;;;;;;;;;;;;;;;-7.07;82.17;102283.06;5098827;28;20002;-67
2022/01/25 02:35:51;;;;;;;;;;;;;;;-7.07;82.03;102280.47;5105555;28;20014;-67
2022/01/25 02:38:21;;;;;;;;;;;;;;;-7.05;82.07;102283.94;5102340;28;19916;-67
2022/01/25 02:40:46;;;;;;;;;;;;;;;-7.05;81.87;102281.34;5087627;28;19928;-67
2022/01/25 02:43:15;;;;;;;;;;;;;;;-7.05;82.40;102276.13;5093707;28;19915;-68
2022/01/25 02:45:41;;;;;;;;;;;;;;;-7.04;82.44;102275.28;5095012;28;19931;-67
2022/01/25 02:50:50;;;;;;;;;;;;;;;-7.01;82.64;102272.69;5106409;28;20019;-66
2022/01/25 02:53:15;;;;;;;;;;;;;;;-6.98;82.63;102278.84;5110033;28;20014;-66
2022/01/25 02:55:40;;;;;;;;;;;;;;;-6.98;83.06;102273.63;5110499;28;19961;-65
2022/01/25 02:58:07;;;;;;;;;;;;;;;-7.00;82.85;102259.69;5111816;28;19916;-66
2022/01/25 03:00:32;;;;;;;;;;;;;;;-7.00;82.58;102266.66;5103362;28;19993;-66
2022/01/25 03:02:57;;;;;;;;;;;;;;;-6.99;82.46;102271.88;5113823;28;19917;-66
2022/01/25 03:05:23;;;;;;;;;;;;;;;-6.99;82.16;102273.59;5089276;28;19995;-66
2022/01/25 03:07:48;;;;;;;;;;;;;;;-6.99;82.07;102264.06;5110293;28;19980;-66
2022/01/25 03:10:14;;;;;;;;;;;;;;;-6.99;81.75;102261.47;5100956;28;19936;-66
2022/01/25 03:12:55;;;;;;;;;;;;;;;-6.99;81.52;102255.34;5090206;28;20000;-67
2022/01/25 03:17:52;;;;;;;;;;;;;;;-6.94;81.38;102261.53;5112653;27;20044;-66
2022/01/25 03:20:34;;;;;;;;;;;;;;;-6.94;81.61;102261.53;5112614;28;19954;-65
2022/01/25 03:23:05;;;;;;;;;;;;;;;-6.93;81.75;102260.66;5109573;28;19932;-66
2022/01/25 03:25:31;;;;;;;;;;;;;;;-6.97;82.16;102253.66;5108183;28;20509;-66
2022/01/25 03:27:57;;;;;;;;;;;;;;;-6.96;81.88;102248.47;5108106;28;20014;-66
2022/01/25 03:30:23;;;;;;;;;;;;;;;-6.94;81.76;102248.50;5092033;28;20057;-67
2022/01/25 03:32:49;;;;;;;;;;;;;;;-6.94;81.81;102244.13;5109930;28;20020;-68
2022/01/25 03:35:14;;;;;;;;;;;;;;;-6.98;81.53;102244.94;5104964;28;19927;-68
2022/01/25 03:37:39;;;;;;;;;;;;;;;-6.98;81.46;102242.34;5110859;28;20011;-68
2022/01/25 03:40:05;;;;;;;;;;;;;;;-6.97;81.33;102248.44;5113029;28;20279;-68
2022/01/25 03:42:35;;;;;;;;;;;;;;;-6.97;81.89;102241.47;5109837;28;19911;-68
2022/01/25 03:45:01;;;;;;;;;;;;;;;-6.98;81.36;102242.34;5106236;28;19988;-66
2022/01/25 03:47:41;;;;;;;;;;;;;;;-6.97;81.77;102243.22;5108573;28;20385;-67
2022/01/25 03:50:07;;;;;;;;;;;;;;;-6.94;81.51;102253.69;5091938;27;19918;-66
2022/01/25 03:52:35;;;;;;;;;;;;;;;-6.99;81.15;102244.94;5100385;28;19924;-66
2022/01/25 03:55:01;;;;;;;;;;;;;;;-7.02;80.76;102232.72;5111124;28;20265;-67
2022/01/25 03:57:26;;;;;;;;;;;;;;;-7.01;81.62;102236.19;5090393;28;19926;-67
2022/01/25 03:59:52;;;;;;;;;;;;;;;-6.97;81.98;102235.41;5106731;28;20022;-66
2022/01/25 04:02:17;;;;;;;;;;;;;;;-6.99;82.73;102224.06;5110234;28;20000;-66
2022/01/25 04:04:43;;;;;;;;;;;;;;;-6.96;82.67;102218.91;5100055;28;19911;-66
2022/01/25 04:07:10;;;;;;;;;;;;;;;-6.94;83.05;102211.97;5100175;28;19951;-67
2022/01/25 04:09:36;;;;;;;;;;;;;;;-6.96;83.15;102214.56;5086469;28;19954;-67
2022/01/25 04:12:02;;;;;;;;;;;;;;;-6.94;82.45;102211.97;5079694;28;19969;-66
2022/01/25 04:14:29;;;;;;;;;;;;;;;-6.94;81.41;102217.19;5106263;28;19923;-66
2022/01/25 04:25:04;;;;;;;;;;;;;;;-6.96;82.27;102211.97;5105371;28;19915;-66
2022/01/25 04:27:30;;;;;;;;;;;;;;;-6.99;82.61;102198.00;5111244;28;19927;-66
2022/01/25 04:29:55;;;;;;;;;;;;;;;-7.00;82.46;102212.75;5106353;28;19912;-67
2022/01/25 04:32:31;;;;;;;;;;;;;;;-7.00;81.49;102211.91;5085863;28;19919;-66
2022/01/25 05:02:46;;;;;;;;;;;;;;;-7.17;81.32;102181.25;5093397;28;19925;-66
2022/01/25 05:08:21;;;;;;;;;;;;;;;-7.15;82.30;102181.28;5016716;28;19951;-66
2022/01/25 05:11:03;;;;;;;;;;;;;;;-7.15;82.60;102182.13;5087023;28;19912;-66
2022/01/25 05:13:42;;;;;;;;;;;;;;;-7.13;82.63;102178.69;5104177;28;19934;-67
2022/01/25 05:19:02;;;;;;;;;;;;;;;-7.13;82.96;102170.88;5098390;28;20525;-67
2022/01/25 05:24:11;;;;;;;;;;;;;;;-7.13;82.31;102171.72;5109236;28;19938;-67
2022/01/25 05:26:36;;;;;;;;;;;;;;;-7.15;82.08;102166.50;5107570;28;19919;-67
2022/01/25 05:29:02;;;;;;;;;;;;;;;-7.15;82.14;102171.72;5093568;28;19916;-67
2022/01/25 05:31:27;;;;;;;;;;;;;;;-7.13;82.71;102170.88;5105136;28;20556;-66
2022/01/25 05:33:53;;;;;;;;;;;;;;;-7.13;82.18;102156.97;5102720;27;20014;-67
2022/01/25 05:36:18;;;;;;;;;;;;;;;-7.10;82.87;102155.28;5085204;28;19911;-67
2022/01/25 05:38:45;;;;;;;;;;;;;;;-7.09;83.07;102152.69;5078616;28;20053;-67
2022/01/25 05:41:12;;;;;;;;;;;;;;;-7.08;83.43;102145.72;5106873;28;20043;-65
2022/01/25 05:46:20;;;;;;;;;;;;;;;-7.02;83.25;102141.47;5104876;28;20011;-66
2022/01/25 05:48:47;;;;;;;;;;;;;;;-6.96;83.69;102151.09;5092700;28;19919;-66
2022/01/25 05:51:12;;;;;;;;;;;;;;;-6.96;83.70;102149.38;5100199;28;20424;-66
2022/01/25 05:53:40;;;;;;;;;;;;;;;-6.99;83.54;102144.13;5085780;28;20029;-67
2022/01/25 05:56:05;;;;;;;;;;;;;;;-6.97;83.92;102144.16;5098235;28;19947;-69
2022/01/25 05:58:30;;;;;;;;;;;;;;;-6.95;83.60;102137.19;5100566;28;19977;-67
2022/01/25 06:00:56;;;;;;;;;;;;;;;-6.92;84.17;102137.25;5109010;28;19945;-67
2022/01/25 06:03:21;;;;;;;;;;;;;;;-6.90;83.64;102138.16;5100617;28;20403;-67
2022/01/25 06:05:46;;;;;;;;;;;;;;;-6.86;83.98;102132.97;5099720;28;19920;-67
2022/01/25 06:08:12;;;;;;;;;;;;;;;-6.82;84.41;102121.72;5101050;28;19923;-67
2022/01/25 06:10:37;;;;;;;;;;;;;;;-6.77;83.97;102113.94;5098492;28;19916;-67
2022/01/25 06:13:03;;;;;;;;;;;;;;;-6.72;83.91;102127.91;5086453;28;19923;-67
2022/01/25 06:15:28;;;;;;;;;;;;;;;-6.68;83.99;102129.72;5100939;28;20078;-67
2022/01/25 06:17:53;;;;;;;;;;;;;;;-6.66;83.61;102117.53;5096162;28;19940;-66
2022/01/25 06:20:19;;;;;;;;;;;;;;;-6.66;83.50;102114.94;5102953;28;19911;-67
2022/01/25 06:22:44;;;;;;;;;;;;;;;-6.63;83.07;102122.78;5105187;28;19965;-67
2022/01/25 06:25:11;;;;;;;;;;;;;;;-6.62;82.92;102117.59;5101647;28;19912;-67
2022/01/25 06:27:40;;;;;;;;;;;;;;;-6.56;82.80;102121.97;5101089;28;19912;-67
2022/01/25 06:30:17;;;;;;;;;;;;;;;-6.56;82.82;102117.66;5105323;28;19919;-67
2022/01/25 06:32:44;;;;;;;;;;;;;;;-6.53;82.67;102114.19;5106619;28;20076;-67
2022/01/25 06:35:10;;;;;;;;;;;;;;;-6.51;82.58;102112.50;5105262;28;19991;-66
2022/01/25 06:37:35;;;;;;;;;;;;;;;-6.43;82.17;102118.63;5106800;28;19942;-67
2022/01/25 06:40:00;;;;;;;;;;;;;;;-6.43;81.84;102119.53;5106370;28;19966;-64
2022/01/25 06:42:29;;;;;;;;;;;;;;;-6.44;82.29;102123.00;5103574;28;19920;-65
2022/01/25 06:44:57;;;;;;;;;;;;;;;-6.46;82.43;102114.28;5109982;28;20279;-65
2022/01/25 06:47:23;;;;;;;;;;;;;;;-6.44;82.60;102116.91;5101084;27;19926;-65
2022/01/25 06:49:48;;;;;;;;;;;;;;;-6.42;82.47;102120.41;5083670;28;19919;-66
2022/01/25 06:52:13;;;;;;;;;;;;;;;-6.38;82.25;102127.41;5103905;28;19923;-65
2022/01/25 06:54:39;;;;;;;;;;;;;;;-6.32;81.98;102135.28;5101129;28;19987;-65
2022/01/25 06:57:04;;;;;;;;;;;;;;;-6.29;81.86;102130.09;5090375;28;20545;-66
2022/01/25 06:59:29;;;;;;;;;;;;;;;-6.28;81.42;102124.00;5101933;27;19919;-68
2022/01/25 07:01:55;;;;;;;;;;;;;;;-6.26;81.67;102122.31;5099004;28;19923;-66
2022/01/25 07:04:20;;;;;;;;;;;;;;;-6.20;81.42;102127.53;5077006;28;19919;-67
2022/01/25 07:06:45;;;;;;;;;;;;;;;-6.17;81.10;102114.53;5087922;28;20406;-66
2022/01/25 07:09:11;;;;;;;;;;;;;;;-6.18;81.20;102110.16;5100961;28;19920;-67
2022/01/25 07:11:36;;;;;;;;;;;;;;;-6.14;81.10;102112.81;5103944;28;19919;-66
2022/01/25 07:14:01;;;;;;;;;;;;;;;-6.13;80.87;102111.09;5089610;28;19920;-66
2022/01/25 07:16:27;;;;;;;;;;;;;;;-6.11;81.29;102111.97;5107544;28;20287;-66
2022/01/25 07:18:52;;;;;;;;;;;;;;;-6.04;81.47;102114.66;5083793;28;20508;-66
2022/01/25 07:21:17;;;;;;;;;;;;;;;-6.02;81.03;102099.88;5095560;28;20383;-66
2022/01/25 07:23:42;;;;;;;;;;;;;;;-5.98;80.82;102103.38;5097025;28;19923;-66
2022/01/25 07:26:08;;;;;;;;;;;;;;;-5.95;80.97;102091.22;5099223;28;19915;-65
2022/01/25 07:28:34;;;;;;;;;;;;;;;-5.93;80.92;102086.84;5093040;28;19915;-66
2022/01/25 07:31:00;;;;;;;;;;;;;;;-5.85;81.13;102089.53;5084395;28;19912;-66
2022/01/25 07:33:25;;;;;;;;;;;;;;;-5.83;80.57;102079.97;5105526;28;19916;-67
2022/01/25 07:35:50;;;;;;;;;;;;;;;-5.78;80.60;102071.25;5105987;28;19959;-67
2022/01/25 07:38:16;;;;;;;;;;;;;;;-5.73;80.72;102076.53;5080922;28;19919;-67
2022/01/25 07:40:42;;;;;;;;;;;;;;;-5.70;80.35;102080.03;5081065;28;19916;-66
2022/01/25 07:43:07;;;;;;;;;;;;;;;-5.61;80.90;102094.91;5088479;28;19920;-67
2022/01/25 07:45:35;;;;;;;;;;;;;;;-5.59;81.23;102088.81;5100264;28;19919;-66
2022/01/25 07:48:08;;;;;;;;;;;;;;;-5.54;81.27;102084.50;5096236;28;20336;-67
2022/01/25 07:50:33;;;;;;;;;;;;;;;-5.43;81.43;102068.84;5091842;28;19943;-67
2022/01/25 07:52:59;;;;;;;;;;;;;;;-5.34;81.91;102077.63;5083430;28;20359;-67
2022/01/25 07:55:24;;;;;;;;;;;;;;;-5.30;81.96;102070.63;5105566;27;20077;-66
2022/01/25 07:57:50;;;;;;;;;;;;;;;-5.18;81.35;102071.59;5088642;28;19911;-65
2022/01/25 08:00:15;;;;;;;;;;;;;;;-5.10;81.64;102074.19;5098084;28;20003;-66
2022/01/25 08:02:41;;;;;;;;;;;;;;;-5.03;82.17;102071.63;5108860;27;20368;-66
2022/01/25 08:05:07;;;;;;;;;;;;;;;-4.91;82.07;102078.63;5090309;28;19912;-66
2022/01/25 08:07:33;;;;;;;;;;;;;;;-4.79;82.01;102066.47;5106335;27;19922;-66
2022/01/25 08:09:58;;;;;;;;;;;;;;;-4.69;81.69;102075.19;5100224;27;19996;-67
2022/01/25 08:12:23;;;;;;;;;;;;;;;-4.57;81.76;102074.34;5103516;27;19916;-67
2022/01/25 08:14:49;;;;;;;;;;;;;;;-4.47;81.12;102082.22;5087888;28;19912;-67
2022/01/25 08:17:16;;;;;;;;;;;;;;;-4.39;80.18;102072.63;5105527;27;19916;-68
2022/01/25 08:19:44;;;;;;;;;;;;;;;-4.29;79.88;102065.66;5106227;28;19911;-67
2022/01/25 08:22:09;;;;;;;;;;;;;;;-4.19;80.17;102073.53;5108201;27;19960;-67
2022/01/25 08:24:35;;;;;;;;;;;;;;;-4.07;80.51;102068.25;5101206;28;20356;-67
2022/01/25 08:27:00;;;;;;;;;;;;;;;-3.94;80.23;102058.66;5106823;27;19911;-67
2022/01/25 08:29:25;;;;;;;;;;;;;;;-3.69;80.02;102071.69;5105277;28;20024;-67
2022/01/25 08:31:51;;;;;;;;;;;;;;;-3.45;79.10;102079.50;5112270;28;20392;-67
2022/01/25 08:34:16;;;;;;;;;;;;;;;-3.25;77.91;102064.59;5109514;28;19931;-67
2022/01/25 08:36:41;;;;;;;;;;;;;;;-3.07;77.56;102055.72;5084221;28;19931;-67
2022/01/25 08:39:07;;;;;;;;;;;;;;;-2.86;76.84;102061.78;5104073;28;19916;-67
2022/01/25 08:41:33;;;;;;;;;;;;;;;-2.68;75.75;102045.88;5097328;28;19923;-67
2022/01/25 08:43:58;;;;;;;;;;;;;;;-2.47;75.32;102037.88;5105293;27;19912;-66
2022/01/25 08:46:24;;;;;;;;;;;;;;;-2.24;74.60;102042.94;5092125;28;19920;-66
2022/01/25 08:48:49;;;;;;;;;;;;;;;-2.01;74.99;102043.59;5102630;28;19984;-66
2022/01/25 08:51:15;;;;;;;;;;;;;;;-1.85;73.40;102025.91;5103686;28;19927;-66
2022/01/25 08:53:40;;;;;;;;;;;;;;;-1.58;71.98;102044.06;5102236;27;20002;-67
2022/01/25 08:56:05;;;;;;;;;;;;;;;-1.31;70.37;102036.72;5108758;27;20542;-67
2022/01/25 08:58:31;;;;;;;;;;;;;;;-1.01;68.99;102027.53;5110706;28;20049;-68
2022/01/25 09:00:57;;;;;;;;;;;;;;;-0.92;68.54;102023.03;5100122;28;19919;-67
2022/01/25 09:03:22;;;;;;;;;;;;;;;-0.80;67.97;102030.72;5077306;28;20007;-68
2022/01/25 09:05:48;;;;;;;;;;;;;;;-0.53;66.43;102032.09;5097291;28;19926;-69
2022/01/25 09:08:19;;;;;;;;;;;;;;;-0.39;65.86;102031.00;5095326;28;20389;-67
2022/01/25 09:10:44;;;;;;;;;;;;;;;-0.35;65.42;102037.94;5091700;28;19912;-67
2022/01/25 09:13:10;;;;;;;;;;;;;;;-0.22;64.88;102033.38;5085722;28;19926;-65
2022/01/25 09:15:35;;;;;;;;;;;;;;;-0.18;64.91;102035.03;5097207;28;19915;-66
2022/01/25 09:18:00;;;;;;;;;;;;;;;-0.17;65.05;102039.41;5093933;28;19916;-66
2022/01/25 09:20:26;;;;;;;;;;;;;;;-0.08;64.56;102044.53;5083019;28;20364;-66
2022/01/25 09:22:51;;;;;;;;;;;;;;;-0.03;64.86;102034.81;5098802;28;19919;-67
2022/01/25 09:25:16;;;;;;;;;;;;;;;0.00;64.52;102040.03;5100070;28;20435;-66
2022/01/25 09:27:43;;;;;;;;;;;;;;;0.04;64.71;102032.00;5099320;28;20006;-67
2022/01/25 09:30:08;;;;;;;;;;;;;;;0.08;64.82;102037.22;5102332;28;19915;-67
2022/01/25 09:32:34;;;;;;;;;;;;;;;0.14;64.51;102032.72;5102970;28;19923;-67
2022/01/25 09:34:59;;;;;;;;;;;;;;;0.21;63.86;102034.34;5094742;28;19994;-67
2022/01/25 09:37:24;;;;;;;;;;;;;;;0.29;63.46;102035.06;5097658;28;20019;-67
2022/01/25 09:39:50;;;;;;;;;;;;;;;0.22;63.46;102019.41;5108666;28;19931;-67
2022/01/25 09:42:15;;;;;;;;;;;;;;;0.14;63.54;102011.63;5100795;28;20334;-67
2022/01/25 09:44:41;;;;;;;;;;;;;;;0.08;63.13;102011.72;5106230;28;19993;-67
2022/01/25 09:47:07;;;;;;;;;;;;;;;-0.02;63.72;102007.53;5080644;28;20598;-67
2022/01/25 09:49:32;;;;;;;;;;;;;;;0.02;62.83;102014.47;5104849;28;20023;-67
2022/01/25 09:52:00;;;;;;;;;;;;;;;0.03;63.12;101988.97;5089346;28;19924;-68
2022/01/25 09:54:25;;;;;;;;;;;;;;;-0.08;63.58;101987.41;5098212;27;19957;-67
2022/01/25 09:56:50;;;;;;;;;;;;;;;-0.13;64.15;101991.88;5104131;28;20463;-66
2022/01/25 09:59:16;;;;;;;;;;;;;;;-0.21;64.34;101985.88;5073880;28;19912;-66
2022/01/25 10:01:41;;;;;;;;;;;;;;;-0.26;64.85;101984.19;5098164;28;19953;-66
2022/01/25 10:04:28;;;;;;;;;;;;;;;-0.30;65.21;101979.88;5097978;28;20394;-66
2022/01/25 10:06:53;;;;;;;;;;;;;;;-0.28;65.37;101984.25;5099715;28;20372;-69
2022/01/25 10:09:20;;;;;;;;;;;;;;;-0.30;65.86;101969.34;5098008;28;19918;-69
2022/01/25 10:11:45;;;;;;;;;;;;;;;-0.29;65.95;101971.09;5110821;28;19920;-69
2022/01/25 10:14:11;;;;;;;;;;;;;;;-0.23;65.96;101961.31;5102173;28;19968;-69
2022/01/25 10:16:38;;;;;;;;;;;;;;;-0.23;66.20;101963.06;5094990;28;20320;-69
2022/01/25 10:19:04;;;;;;;;;;;;;;;-0.21;66.60;101969.19;5081878;28;19919;-68
2022/01/25 10:21:34;;;;;;;;;;;;;;;-0.22;66.63;101959.56;5085954;28;19937;-69
2022/01/25 10:24:11;;;;;;;;;;;;;;;-0.16;66.73;101964.72;5100692;28;19912;-69
2022/01/25 10:26:39;;;;;;;;;;;;;;;-0.16;66.77;101967.34;5073687;28;19920;-68
2022/01/25 10:29:06;;;;;;;;;;;;;;;-0.18;66.82;101954.19;5095089;28;19915;-69
2022/01/25 10:31:35;;;;;;;;;;;;;;;-0.15;67.15;101948.00;5093954;28;20253;-68
2022/01/25 10:34:01;;;;;;;;;;;;;;;-0.17;66.95;101939.22;5086598;28;19937;-68
2022/01/25 10:36:26;;;;;;;;;;;;;;;-0.12;67.14;101934.75;5083064;28;19919;-68
2022/01/25 10:38:53;;;;;;;;;;;;;;;-0.08;67.06;101944.34;5079782;28;20342;-68
2022/01/25 10:41:20;;;;;;;;;;;;;;;-0.06;67.13;101940.75;5095334;28;19937;-67
2022/01/25 10:43:48;;;;;;;;;;;;;;;-0.02;67.13;101939.84;5107629;28;19912;-66
2022/01/25 10:46:14;;;;;;;;;;;;;;;-0.03;67.44;101943.34;5092515;28;19915;-66
2022/01/25 10:48:42;;;;;;;;;;;;;;;-0.02;67.47;101931.94;5099592;28;20946;-66
2022/01/25 10:51:09;;;;;;;;;;;;;;;0.01;67.38;101931.00;5100186;28;20030;-66
2022/01/25 10:53:34;;;;;;;;;;;;;;;0.15;67.43;101928.94;5101185;28;20006;-68
2022/01/25 10:56:00;;;;;;;;;;;;;;;0.11;67.92;101918.47;5101450;28;19995;-68
2022/01/25 10:58:26;;;;;;;;;;;;;;;0.16;67.77;101917.47;5100467;28;19968;-67
2022/01/25 11:00:51;;;;;;;;;;;;;;;0.20;67.81;101932.38;5103660;28;20444;-68
2022/01/25 11:03:32;;;;;;;;;;;;;;;0.22;67.75;101922.63;5102129;28;19915;-67
2022/01/25 11:06:07;;;;;;;;;;;;;;;0.28;67.81;101917.25;5095421;28;19967;-68
2022/01/25 11:08:36;;;;;;;;;;;;;;;0.26;68.02;101907.63;5097344;28;19916;-68
2022/01/25 11:11:03;;;;;;;;;;;;;;;0.41;67.68;101917.84;5105566;28;19911;-68
2022/01/25 11:15:54;;;;;;;;;;;;;;;0.52;67.93;101914.09;5104461;28;19969;-67
2022/01/25 11:18:20;;;;;;;;;;;;;;;0.57;67.83;101925.41;5086287;28;19919;-67
2022/01/25 11:20:46;;;;;;;;;;;;;;;0.58;67.90;101911.31;5104924;28;19916;-67
2022/01/25 11:23:11;;;;;;;;;;;;;;;0.62;67.79;101913.00;5103634;28;20432;-68
2022/01/25 11:25:37;;;;;;;;;;;;;;;0.64;67.64;101900.63;5104735;27;20307;-67
2022/01/25 11:28:03;;;;;;;;;;;;;;;0.71;67.65;101911.94;5104582;28;19911;-66
2022/01/25 11:30:29;;;;;;;;;;;;;;;0.76;67.90;101910.03;5109978;28;19979;-66
2022/01/25 11:32:54;;;;;;;;;;;;;;;0.78;67.88;101902.97;5085288;28;20347;-66
2022/01/25 11:35:23;;;;;;;;;;;;;;;0.81;67.71;101898.47;5101176;27;20302;-66
2022/01/25 11:37:49;;;;;;;;;;;;;;;0.87;67.39;101894.84;5088620;28;19927;-67
2022/01/25 11:40:29;;;;;;;;;;;;;;;0.91;67.02;101894.72;5098170;28;19912;-68
2022/01/25 11:42:57;;;;;;;;;;;;;;;1.01;66.66;101895.38;5092663;28;19926;-67
2022/01/25 11:45:24;;;;;;;;;;;;;;;0.98;66.74;101898.09;5104692;28;20383;-68
2022/01/25 11:47:50;;;;;;;;;;;;;;;1.03;66.88;101896.22;5100982;28;20425;-68
2022/01/25 11:50:16;;;;;;;;;;;;;;;1.01;66.43;101879.53;5106033;28;19919;-67
2022/01/25 11:52:49;;;;;;;;;;;;;;;1.10;66.54;101881.94;5102459;28;19915;-67
2022/01/25 11:55:19;;;;;;;;;;;;;;;1.14;66.34;101876.56;5097613;28;19915;-68
2022/01/25 11:58:04;;;;;;;;;;;;;;;1.14;66.18;101876.56;5103517;28;20006;-67
2022/01/25 12:00:38;;;;;;;;;;;;;;;1.16;65.74;101881.81;5103349;28;19911;-67
2022/01/25 12:03:19;;;;;;;;;;;;;;;1.18;66.16;101870.28;5106034;27;19918;-68
2022/01/25 12:06:27;;;;;;;;;;;;;;;1.05;65.87;101857.41;5083630;28;20601;-70
2022/01/25 12:09:43;;;;;;;;;;;;;;;1.20;66.49;101870.25;5110599;28;19916;-70
2022/01/25 12:12:10;;;;;;;;;;;;;;;1.20;65.86;101865.84;5028395;28;20528;-69
2022/01/25 12:14:50;;;;;;;;;;;;;;;1.23;66.12;101864.88;5026563;28;19913;-67
2022/01/25 12:20:47;;;;;;;;;;;;;;;1.31;66.04;101853.22;5073962;27;19912;-67
2022/01/25 12:23:18;;;;;;;;;;;;;;;1.27;66.07;101848.91;5095889;28;20372;-67
2022/01/25 12:26:07;;;;;;;;;;;;;;;1.28;65.94;101840.06;5077775;28;19915;-67
2022/01/25 12:28:37;;;;;;;;;;;;;;;1.31;66.50;101837.34;5082227;28;19912;-67
2022/01/25 12:31:03;;;;;;;;;;;;;;;1.35;66.24;101828.44;5087797;28;20298;-67
2022/01/25 12:33:29;;;;;;;;;;;;;;;1.35;65.87;101831.06;5099766;28;19916;-68
2022/01/25 12:36:00;;;;;;;;;;;;;;;1.31;66.27;101837.34;5102144;28;20018;-67
2022/01/25 12:38:37;;;;;;;;;;;;;;;1.31;66.04;101820.63;5100577;27;19964;-67
2022/01/25 12:41:12;;;;;;;;;;;;;;;1.23;66.57;101817.31;5095336;27;19920;-68
2022/01/25 12:43:43;;;;;;;;;;;;;;;1.30;66.72;101835.63;5104332;28;20009;-68
2022/01/25 12:46:11;;;;;;;;;;;;;;;1.30;66.92;101825.06;5087566;28;19912;-67
2022/01/25 12:48:48;;;;;;;;;;;;;;;1.32;67.10;101831.16;5095040;27;20036;-68
2022/01/25 12:51:39;;;;;;;;;;;;;;;1.32;67.16;101828.50;5087560;28;19959;-69
2022/01/25 12:54:10;;;;;;;;;;;;;;;1.33;67.37;101824.09;5098904;28;19969;-70
2022/01/25 12:56:41;;;;;;;;;;;;;;;1.33;66.89;101818.81;5102645;28;19928;-70
2022/01/25 12:59:11;;;;;;;;;;;;;;;1.36;67.10;101816.94;5104597;28;19916;-69
2022/01/25 13:01:38;;;;;;;;;;;;;;;1.34;67.29;101808.22;5110472;28;20314;-69
2022/01/25 13:04:04;;;;;;;;;;;;;;;1.35;67.46;101806.44;5105065;28;19918;-70
2022/01/25 13:06:31;;;;;;;;;;;;;;;1.34;66.87;101800.28;5102996;28;19934;-69
2022/01/25 13:09:09;;;;;;;;;;;;;;;1.37;67.38;101797.56;5108447;28;20376;-69
2022/01/25 13:16:43;;;;;;;;;;;;;;;1.38;67.50;101809.84;5101629;28;20334;-68
2022/01/25 13:19:09;;;;;;;;;;;;;;;1.40;67.60;101799.25;5106619;28;19918;-69
2022/01/25 13:21:52;;;;;;;;;;;;;;;1.42;68.02;101797.44;5099452;28;20295;-69
2022/01/25 13:24:19;;;;;;;;;;;;;;;1.42;67.91;101797.44;5104982;27;19918;-70
2022/01/25 13:26:50;;;;;;;;;;;;;;;1.45;67.91;101795.56;5104039;27;20006;-69
2022/01/25 13:32:11;;;;;;;;;;;;;;;1.44;67.81;101796.47;5081456;28;19919;-68
2022/01/25 13:34:37;;;;;;;;;;;;;;;1.46;67.97;101799.97;5105142;27;20344;-69
2022/01/25 13:37:02;;;;;;;;;;;;;;;1.46;68.31;101793.78;5087433;28;20011;-69
2022/01/25 13:39:28;;;;;;;;;;;;;;;1.49;68.44;101794.56;5099503;28;19943;-69
2022/01/25 13:42:02;;;;;;;;;;;;;;;1.47;68.63;101788.47;5085323;28;19963;-69
2022/01/25 13:47:12;;;;;;;;;;;;;;;1.52;68.68;101789.19;5100760;28;19918;-70
2022/01/25 13:49:37;;;;;;;;;;;;;;;1.50;68.38;101775.16;5100170;28;19915;-69
2022/01/25 13:52:04;;;;;;;;;;;;;;;1.52;68.51;101772.47;5080577;28;19915;-69
2022/01/25 13:54:29;;;;;;;;;;;;;;;1.55;68.83;101767.13;5081945;28;19969;-68
2022/01/25 13:56:56;;;;;;;;;;;;;;;1.54;69.19;101762.72;5085451;28;20380;-69
2022/01/25 13:59:23;;;;;;;;;;;;;;;1.53;69.00;101759.22;5081992;28;20585;-67
2022/01/25 14:01:49;;;;;;;;;;;;;;;1.56;69.21;101764.44;5078201;28;19916;-69
2022/01/25 14:04:14;;;;;;;;;;;;;;;1.56;68.90;101756.50;5074073;28;20393;-68
2022/01/25 14:06:43;;;;;;;;;;;;;;;1.56;68.94;101747.69;5083062;28;19917;-68
2022/01/25 14:09:09;;;;;;;;;;;;;;;1.54;69.44;101747.72;5085742;28;19920;-68
2022/01/25 14:25:09;;;;;;;;;;;;;;;1.58;70.20;101735.31;5085054;28;19969;-68
2022/01/25 14:27:45;;;;;;;;;;;;;;;1.64;69.67;101735.97;5087765;28;19924;-68
2022/01/25 14:30:11;;;;;;;;;;;;;;;1.59;70.05;101737.91;5084765;28;19919;-68
2022/01/25 14:32:36;;;;;;;;;;;;;;;1.57;70.33;101729.13;5085058;28;21798;-68
2022/01/25 14:35:04;;;;;;;;;;;;;;;1.56;70.46;101732.69;5086855;28;19924;-68
2022/01/25 14:37:29;;;;;;;;;;;;;;;1.53;70.24;101722.22;5084773;28;19956;-68
2022/01/25 14:40:02;;;;;;;;;;;;;;;1.53;70.43;101721.34;5084396;28;19947;-69
2022/01/25 14:42:28;;;;;;;;;;;;;;;1.52;70.34;101725.75;5078725;28;19920;-68
2022/01/25 14:44:54;;;;;;;;;;;;;;;1.50;70.78;101726.72;5089022;28;19911;-69
2022/01/25 14:47:21;;;;;;;;;;;;;;;1.47;71.43;101719.75;5086621;28;19912;-68
2022/01/25 14:49:47;;;;;;;;;;;;;;;1.45;70.91;101712.78;5093698;28;19912;-68
2022/01/25 14:52:12;;;;;;;;;;;;;;;1.45;71.75;101710.13;5099955;27;19926;-68
2022/01/25 14:54:42;;;;;;;;;;;;;;;1.46;71.56;101727.72;5092549;28;20339;-69
2022/01/25 14:57:10;;;;;;;;;;;;;;;1.47;71.53;101737.38;5105624;28;20376;-66
2022/01/25 14:59:43;;;;;;;;;;;;;;;1.43;71.81;101722.50;5103434;28;19925;-67
2022/01/25 15:02:18;;;;;;;;;;;;;;;1.42;71.94;101732.19;5102933;28;19920;-67
2022/01/25 15:04:45;;;;;;;;;;;;;;;1.41;71.83;101737.53;5082237;28;19920;-67
2022/01/25 15:07:14;;;;;;;;;;;;;;;1.40;72.30;101725.22;5097086;28;20007;-66
2022/01/25 15:09:55;;;;;;;;;;;;;;;1.38;72.17;101725.28;5093978;28;19927;-67
2022/01/25 15:12:24;;;;;;;;;;;;;;;1.36;72.50;101724.44;5090922;28;19918;-67
2022/01/25 15:17:27;;;;;;;;;;;;;;;1.41;72.58;101716.38;5099616;27;20359;-67